createdAt,value
2018-09-12T00:00:56.608Z,21.27
2018-09-12T00:03:27.097Z,21.35
2018-09-12T00:05:57.662Z,21.36
2018-09-12T00:08:28.155Z,21.47
2018-09-12T00:10:58.658Z,21.42
2018-09-12T00:13:28.995Z,21.35
2018-09-12T00:15:59.460Z,21.35
2018-09-12T00:18:29.980Z,21.32
2018-09-12T00:21:00.403Z,21.39
2018-09-12T00:23:30.661Z,21.46
2018-09-12T00:26:01.038Z,21.38
2018-09-12T00:28:31.676Z,21.45
2018-09-12T00:31:02.252Z,21.52
2018-09-12T00:33:32.728Z,21.65
2018-09-12T00:36:03.099Z,21.57
2018-09-12T00:38:33.545Z,21.59
2018-09-12T00:41:03.943Z,21.68
2018-09-12T00:43:34.400Z,21.72
2018-09-12T00:46:04.871Z,21.63
2018-09-12T00:48:35.328Z,21.68
2018-09-12T00:51:05.668Z,21.74
2018-09-12T00:53:36.152Z,21.65
2018-09-12T00:56:06.539Z,21.76
2018-09-12T00:58:37.088Z,21.74
2018-09-12T01:01:08.127Z,21.76
2018-09-12T01:03:38.676Z,21.70
2018-09-12T01:06:09.613Z,21.71
2018-09-12T01:08:40.116Z,21.60
2018-09-12T01:11:11.111Z,21.53
2018-09-12T01:13:41.401Z,21.47
2018-09-12T01:16:11.739Z,21.28
2018-09-12T01:18:42.124Z,21.33
2018-09-12T01:21:13.040Z,21.25
2018-09-12T01:23:43.506Z,21.30
2018-09-12T01:26:14.109Z,21.22
2018-09-12T01:28:44.601Z,21.18
2018-09-12T01:31:14.937Z,21.17
2018-09-12T01:33:45.518Z,21.12
2018-09-12T01:36:16.082Z,21.13
2018-09-12T01:38:46.606Z,21.16
2018-09-12T01:41:17.034Z,21.19
2018-09-12T01:43:47.539Z,21.10
2018-09-12T01:46:18.380Z,21.04
2018-09-12T01:48:48.795Z,20.93
2018-09-12T01:51:19.008Z,20.84
2018-09-12T01:53:49.371Z,20.87
2018-09-12T01:56:19.855Z,20.84
2018-09-12T01:58:50.193Z,20.78
2018-09-12T02:01:20.606Z,20.76
2018-09-12T02:03:50.856Z,20.85
2018-09-12T02:06:21.285Z,20.85
2018-09-12T02:08:51.780Z,20.96
2018-09-12T02:11:22.391Z,21.02
2018-09-12T02:13:52.788Z,21.11
2018-09-12T02:16:23.393Z,21.22
2018-09-12T02:18:53.930Z,21.16
2018-09-12T02:21:24.360Z,21.23
2018-09-12T02:23:54.611Z,21.18
2018-09-12T02:26:25.099Z,21.18
2018-09-12T02:28:55.827Z,21.23
2018-09-12T02:31:26.372Z,21.19
2018-09-12T02:36:27.858Z,21.23
2018-09-12T02:38:59.748Z,21.20
2018-09-12T02:41:31.517Z,21.19
2018-09-12T02:44:01.239Z,21.13
2018-09-12T02:46:31.407Z,21.16
2018-09-12T02:49:01.120Z,21.04
2018-09-12T02:51:30.812Z,21.04
2018-09-12T02:54:00.603Z,21.10
2018-09-12T02:56:30.351Z,21.08
2018-09-12T02:59:00.064Z,21.08
2018-09-12T03:01:30.400Z,20.98
2018-09-12T03:04:00.130Z,21.02
2018-09-12T03:06:29.844Z,21.01
2018-09-12T03:08:59.542Z,20.98
2018-09-12T03:11:29.248Z,20.96
2018-09-12T03:13:59.009Z,20.89
2018-09-12T03:16:28.742Z,20.86
2018-09-12T03:18:58.534Z,20.86
2018-09-12T03:21:28.775Z,20.92
2018-09-12T03:23:59.271Z,20.78
2018-09-12T03:26:29.892Z,20.67
2018-09-12T03:29:00.365Z,20.78
2018-09-12T03:31:31.093Z,20.78
2018-09-12T03:34:01.446Z,20.67
2018-09-12T03:36:31.772Z,20.77
2018-09-12T03:39:01.995Z,20.69
2018-09-12T03:41:32.410Z,20.68
2018-09-12T03:44:02.793Z,20.81
2018-09-12T03:46:33.327Z,20.77
2018-09-12T03:49:03.892Z,20.67
2018-09-12T03:51:34.328Z,20.55
2018-09-12T03:54:04.708Z,20.67
2018-09-12T03:56:35.203Z,20.51
2018-09-12T03:59:05.718Z,20.71
2018-09-12T04:01:36.387Z,20.50
2018-09-12T04:04:06.761Z,20.44
2018-09-12T04:06:37.264Z,20.29
2018-09-12T04:09:10.053Z,20.19
2018-09-12T04:11:40.347Z,20.29
2018-09-12T04:14:10.676Z,20.21
2018-09-12T04:16:41.040Z,20.13
2018-09-12T04:19:11.507Z,20.00
2018-09-12T04:21:41.745Z,19.94
2018-09-12T04:24:12.145Z,19.94
2018-09-12T04:26:42.496Z,19.90
2018-09-12T04:29:16.831Z,19.77
2018-09-12T04:31:47.319Z,19.76
2018-09-12T04:34:17.711Z,19.67
2018-09-12T04:36:48.092Z,19.80
2018-09-12T04:39:18.340Z,19.77
2018-09-12T04:41:48.828Z,19.69
2018-09-12T04:44:19.242Z,19.73
2018-09-12T04:46:49.568Z,19.68
2018-09-12T04:49:19.955Z,19.72
2018-09-12T04:51:50.242Z,19.75
2018-09-12T04:54:20.617Z,19.67
2018-09-12T04:56:51.158Z,19.60
2018-09-12T04:59:21.365Z,19.67
2018-09-12T05:01:51.742Z,19.63
2018-09-12T05:04:22.124Z,19.67
2018-09-12T05:06:52.716Z,19.67
2018-09-12T05:09:23.232Z,19.64
2018-09-12T05:11:53.634Z,19.68
2018-09-12T05:14:23.957Z,19.64
2018-09-12T05:16:54.325Z,19.55
2018-09-12T05:19:24.635Z,19.52
2018-09-12T05:21:55.747Z,19.59
2018-09-12T05:24:26.376Z,19.66
2018-09-12T05:26:57.032Z,19.97
2018-09-12T05:29:27.492Z,21.16
2018-09-12T05:31:57.911Z,21.44
2018-09-12T05:34:28.336Z,20.42
2018-09-12T05:36:58.809Z,20.18
2018-09-12T05:39:29.188Z,19.89
2018-09-12T05:41:59.677Z,19.81
2018-09-12T05:44:30.282Z,19.82
2018-09-12T05:47:00.713Z,19.88
2018-09-12T05:49:31.052Z,21.16
2018-09-12T05:52:01.340Z,23.08
2018-09-12T05:54:31.710Z,24.44
2018-09-12T05:57:02.636Z,25.44
2018-09-12T05:59:33.220Z,26.08
2018-09-12T06:02:03.721Z,27.20
2018-09-12T06:04:34.209Z,27.33
2018-09-12T06:07:04.951Z,27.47
2018-09-12T06:09:35.324Z,28.05
2018-09-12T06:12:05.858Z,28.74
2018-09-12T06:14:36.327Z,29.18
2018-09-12T06:17:06.780Z,29.27
2018-09-12T06:19:37.238Z,29.70
2018-09-12T06:22:07.688Z,29.32
2018-09-12T06:24:38.192Z,28.81
2018-09-12T06:27:08.590Z,26.42
2018-09-12T06:29:38.936Z,25.53
2018-09-12T06:32:09.337Z,24.96
2018-09-12T06:34:39.717Z,24.30
2018-09-12T06:37:10.389Z,23.97
2018-09-12T06:39:40.996Z,23.70
2018-09-12T06:42:11.200Z,23.38
2018-09-12T06:44:41.674Z,23.35
2018-09-12T06:47:12.004Z,23.22
2018-09-12T06:49:42.484Z,23.11
2018-09-12T06:52:12.904Z,23.43
2018-09-12T06:54:43.283Z,23.27
2018-09-12T06:57:13.928Z,23.16
2018-09-12T06:59:44.403Z,23.17
2018-09-12T07:02:14.750Z,23.20
2018-09-12T07:04:45.089Z,23.26
2018-09-12T07:07:15.423Z,23.06
2018-09-12T07:09:45.849Z,23.11
2018-09-12T07:12:16.304Z,23.19
2018-09-12T07:14:46.652Z,23.09
2018-09-12T07:17:16.911Z,23.21
2018-09-12T07:19:47.785Z,22.98
2018-09-12T07:22:18.120Z,22.99
2018-09-12T07:24:48.637Z,22.84
2018-09-12T07:27:19.064Z,22.68
2018-09-12T07:29:49.388Z,22.54
2018-09-12T07:32:19.892Z,22.55
2018-09-12T07:34:50.403Z,22.59
2018-09-12T07:37:21.364Z,22.61
2018-09-12T07:39:51.934Z,22.65
2018-09-12T07:42:22.192Z,22.83
2018-09-12T07:44:52.495Z,22.73
2018-09-12T07:47:22.949Z,22.57
2018-09-12T07:49:53.453Z,22.53
2018-09-12T07:52:23.974Z,22.73
2018-09-12T07:54:54.524Z,22.67
2018-09-12T07:57:24.910Z,22.84
2018-09-12T07:59:55.271Z,22.82
2018-09-12T08:02:25.772Z,22.80
2018-09-12T08:04:56.269Z,23.09
2018-09-12T08:07:27.317Z,23.17
2018-09-12T08:09:57.707Z,23.17
2018-09-12T08:12:28.212Z,23.13
2018-09-12T08:14:58.673Z,23.32
2018-09-12T08:17:28.928Z,23.23
2018-09-12T08:19:59.427Z,23.39
2018-09-12T08:22:29.833Z,23.89
2018-09-12T08:25:00.312Z,23.91
2018-09-12T08:27:30.757Z,23.82
2018-09-12T08:30:01.200Z,24.02
2018-09-12T08:32:31.585Z,24.06
2018-09-12T08:35:01.936Z,23.91
2018-09-12T08:37:32.358Z,23.99
2018-09-12T08:40:02.987Z,24.19
2018-09-12T08:42:33.214Z,24.23
2018-09-12T08:45:03.676Z,24.02
2018-09-12T08:47:34.389Z,23.88
2018-09-12T08:50:04.816Z,24.02
2018-09-12T08:52:35.381Z,23.94
2018-09-12T08:55:05.983Z,23.88
2018-09-12T08:57:36.455Z,25.03
2018-09-12T09:00:07.413Z,25.98
2018-09-12T09:02:37.946Z,25.32
2018-09-12T09:05:08.520Z,25.76
2018-09-12T09:07:38.873Z,25.72
2018-09-12T09:10:09.317Z,26.85
2018-09-12T09:12:39.857Z,26.23
2018-09-12T09:15:10.353Z,26.31
2018-09-12T09:17:40.744Z,26.14
2018-09-12T09:20:11.237Z,26.21
2018-09-12T09:22:41.453Z,25.76
2018-09-12T09:25:11.957Z,26.14
2018-09-12T09:27:42.896Z,25.75
2018-09-12T09:30:13.434Z,25.72
2018-09-12T09:32:43.902Z,25.90
2018-09-12T09:35:14.517Z,26.63
2018-09-12T09:37:45.001Z,26.82
2018-09-12T09:40:15.468Z,26.92
2018-09-12T09:42:45.624Z,26.29
2018-09-12T09:45:16.034Z,25.94
2018-09-12T09:47:46.525Z,26.09
2018-09-12T09:50:17.253Z,25.93
2018-09-12T09:52:47.750Z,25.85
2018-09-12T09:55:18.229Z,25.23
2018-09-12T09:57:48.596Z,25.27
2018-09-12T10:00:24.145Z,24.68
2018-09-12T10:02:59.558Z,24.52
2018-09-12T10:05:35.032Z,24.37
2018-09-12T10:08:10.558Z,24.42
2018-09-12T10:10:41.300Z,24.10
2018-09-12T10:13:11.838Z,24.00
2018-09-12T10:15:42.321Z,23.77
2018-09-12T10:18:12.916Z,23.91
2018-09-12T10:20:43.292Z,24.10
2018-09-12T10:23:13.748Z,24.01
2018-09-12T10:25:44.228Z,24.16
2018-09-12T10:28:14.651Z,24.29
2018-09-12T10:30:45.063Z,24.13
2018-09-12T10:33:15.472Z,23.92
2018-09-12T10:35:48.984Z,24.17
2018-09-12T10:38:19.544Z,24.49
2018-09-12T10:40:50.083Z,24.93
2018-09-12T10:43:20.549Z,25.00
2018-09-12T10:45:50.899Z,24.76
2018-09-12T10:48:21.320Z,24.82
2018-09-12T10:50:51.581Z,24.52
2018-09-12T10:53:22.157Z,24.37
2018-09-12T10:55:52.653Z,24.34
2018-09-12T10:58:22.997Z,24.08
2018-09-12T11:00:53.249Z,23.85
2018-09-12T11:03:23.831Z,23.65
2018-09-12T11:05:54.185Z,23.41
2018-09-12T11:08:24.665Z,23.30
2018-09-12T11:10:55.132Z,23.05
2018-09-12T11:13:25.504Z,23.12
2018-09-12T11:15:55.994Z,22.76
2018-09-12T11:18:26.492Z,22.85
2018-09-12T11:20:57.038Z,23.07
2018-09-12T11:23:27.628Z,22.93
2018-09-12T11:25:58.151Z,23.71
2018-09-12T11:28:28.608Z,24.48
2018-09-12T11:30:58.888Z,24.89
2018-09-12T11:33:29.235Z,24.85
2018-09-12T11:35:59.544Z,24.35
2018-09-12T11:38:29.917Z,24.18
2018-09-12T11:41:00.283Z,23.61
2018-09-12T11:43:30.564Z,23.35
2018-09-12T11:46:01.337Z,22.83
2018-09-12T11:48:32.053Z,22.92
2018-09-12T11:51:02.393Z,22.83
2018-09-12T11:53:32.796Z,22.58
2018-09-12T11:56:03.085Z,22.46
2018-09-12T11:58:33.438Z,22.20
2018-09-12T12:01:03.846Z,22.23
2018-09-12T12:03:34.323Z,22.05
2018-09-12T12:06:04.721Z,21.77
2018-09-12T12:08:34.944Z,21.78
2018-09-12T12:11:05.490Z,21.90
2018-09-12T12:13:35.772Z,21.90
2018-09-12T12:16:06.272Z,21.92
2018-09-12T12:18:36.761Z,21.92
2018-09-12T12:21:07.316Z,21.76
2018-09-12T12:23:37.637Z,21.71
2018-09-12T12:26:08.422Z,21.40
2018-09-12T12:28:38.902Z,21.37
2018-09-12T12:31:09.435Z,21.53
2018-09-12T12:33:40.876Z,21.64
2018-09-12T12:36:11.840Z,21.64
2018-09-12T12:38:42.259Z,21.62
2018-09-12T12:41:12.876Z,21.36
2018-09-12T12:43:43.267Z,21.29
2018-09-12T12:46:13.654Z,21.29
2018-09-12T12:48:44.116Z,21.19
2018-09-12T12:51:14.530Z,21.32
2018-09-12T12:53:44.961Z,21.14
2018-09-12T12:56:15.380Z,21.21
2018-09-12T12:58:45.727Z,20.95
2018-09-12T13:01:16.123Z,20.83
2018-09-12T13:03:47.400Z,20.74
2018-09-12T13:06:18.532Z,20.74
2018-09-12T13:08:49.089Z,20.55
2018-09-12T13:11:19.501Z,20.85
2018-09-12T13:13:49.956Z,20.83
2018-09-12T13:16:20.372Z,20.56
2018-09-12T13:18:50.724Z,20.43
2018-09-12T13:21:21.166Z,20.55
2018-09-12T13:23:51.360Z,20.46
2018-09-12T13:26:21.870Z,20.45
2018-09-12T13:28:52.320Z,20.19
2018-09-12T13:31:22.734Z,20.22
2018-09-12T13:33:53.008Z,20.36
2018-09-12T13:36:23.470Z,20.56
2018-09-12T13:38:54.029Z,20.47
2018-09-12T13:41:24.372Z,20.58
2018-09-12T13:43:54.691Z,20.45
2018-09-12T13:46:25.048Z,20.45
2018-09-12T13:48:55.432Z,20.57
2018-09-12T13:51:25.844Z,20.53
2018-09-12T13:53:56.389Z,20.62
2018-09-12T13:56:26.858Z,20.50
2018-09-12T13:58:57.169Z,20.36
2018-09-12T14:01:28.897Z,20.18
2018-09-12T14:03:59.228Z,20.22
2018-09-12T14:06:29.697Z,20.08
2018-09-12T14:09:00.177Z,19.94
2018-09-12T14:11:30.993Z,19.84
2018-09-12T14:14:01.341Z,19.43
2018-09-12T14:16:31.891Z,19.23
2018-09-12T14:19:02.336Z,19.24
2018-09-12T14:21:32.783Z,19.22
2018-09-12T14:24:03.257Z,18.90
2018-09-12T14:26:33.523Z,18.94
2018-09-12T14:29:04.095Z,18.83
2018-09-12T14:31:34.405Z,18.97
2018-09-12T14:34:04.773Z,19.06
2018-09-12T14:36:35.014Z,19.16
2018-09-12T14:39:07.479Z,19.24
2018-09-12T14:41:38.461Z,19.39
2018-09-12T14:44:08.947Z,19.56
2018-09-12T14:46:39.344Z,19.42
2018-09-12T14:49:09.796Z,19.59
2018-09-12T14:51:41.155Z,19.58
2018-09-12T14:54:11.658Z,19.69
2018-09-12T14:56:42.020Z,19.74
2018-09-12T14:59:12.517Z,19.58
2018-09-12T15:01:42.980Z,19.58
2018-09-12T15:04:13.482Z,19.49
2018-09-12T15:06:43.848Z,19.47
2018-09-12T15:09:14.316Z,19.67
2018-09-12T15:11:44.887Z,19.51
2018-09-12T15:14:15.193Z,19.45
2018-09-12T15:16:45.589Z,19.55
2018-09-12T15:19:15.846Z,19.57
2018-09-12T15:21:46.221Z,19.59
2018-09-12T15:24:16.627Z,19.39
2018-09-12T15:26:47.172Z,19.23
2018-09-12T15:29:17.590Z,19.45
2018-09-12T15:31:47.837Z,19.39
2018-09-12T15:34:18.221Z,19.05
2018-09-12T15:36:48.820Z,19.12
2018-09-12T15:39:19.324Z,19.21
2018-09-12T15:41:49.868Z,19.24
2018-09-12T15:44:20.408Z,19.21
2018-09-12T15:46:51.000Z,19.01
2018-09-12T15:49:21.241Z,18.90
2018-09-12T15:51:51.643Z,18.59
2018-09-12T15:54:22.129Z,18.61
2018-09-12T15:56:52.702Z,18.55
2018-09-12T15:59:23.089Z,18.34
2018-09-12T16:01:53.533Z,18.38
2018-09-12T16:04:23.897Z,18.36
2018-09-12T16:06:54.474Z,18.27
2018-09-12T16:09:24.776Z,18.34
2018-09-12T16:11:55.001Z,18.31
2018-09-12T16:14:25.523Z,18.33
2018-09-12T16:16:56.511Z,18.25
2018-09-12T16:19:27.016Z,18.28
2018-09-12T16:21:57.592Z,18.32
2018-09-12T16:24:28.100Z,18.24
2018-09-12T16:26:58.568Z,18.38
2018-09-12T16:29:29.094Z,17.90
2018-09-12T16:31:59.611Z,18.00
2018-09-12T16:34:29.777Z,17.81
2018-09-12T16:37:00.269Z,18.02
2018-09-12T16:39:30.668Z,17.97
2018-09-12T16:42:01.233Z,18.00
2018-09-12T16:44:31.732Z,18.07
2018-09-12T16:47:02.227Z,17.99
2018-09-12T16:49:32.565Z,17.93
2018-09-12T16:52:03.031Z,17.82
2018-09-12T16:54:33.370Z,17.88
2018-09-12T16:57:03.724Z,17.81
2018-09-12T16:59:34.194Z,17.84
2018-09-12T17:02:04.751Z,17.84
2018-09-12T17:04:35.189Z,17.75
2018-09-12T17:07:05.606Z,17.80
2018-09-12T17:09:35.835Z,17.70
2018-09-12T17:12:06.246Z,17.88
2018-09-12T17:14:36.651Z,17.73
2018-09-12T17:17:07.215Z,17.83
2018-09-12T17:19:37.725Z,17.62
2018-09-12T17:22:08.174Z,17.80
2018-09-12T17:24:38.670Z,17.63
2018-09-12T17:27:09.129Z,17.43
2018-09-12T17:29:39.621Z,17.49
2018-09-12T17:32:09.908Z,17.66
2018-09-12T17:34:40.264Z,17.56
2018-09-12T17:37:10.756Z,17.49
2018-09-12T17:39:41.260Z,17.47
2018-09-12T17:42:11.821Z,17.33
2018-09-12T17:44:42.510Z,17.25
2018-09-12T17:47:13.017Z,17.43
2018-09-12T17:49:43.598Z,17.34
2018-09-12T17:52:15.147Z,17.39
2018-09-12T17:54:45.584Z,17.42
2018-09-12T17:57:16.056Z,17.17
2018-09-12T17:59:46.630Z,17.11
2018-09-12T18:02:18.161Z,17.11
2018-09-12T18:04:48.553Z,16.86
2018-09-12T18:07:19.391Z,16.93
2018-09-12T18:09:49.808Z,16.82
2018-09-12T18:12:20.228Z,16.77
2018-09-12T18:14:50.667Z,16.84
2018-09-12T18:17:21.276Z,16.99
2018-09-12T18:19:51.818Z,17.03
2018-09-12T18:22:22.343Z,16.89
2018-09-12T18:24:52.852Z,16.83
2018-09-12T18:27:23.283Z,16.71
2018-09-12T18:29:54.006Z,16.54
2018-09-12T18:32:24.580Z,16.82
2018-09-12T18:34:55.002Z,16.79
2018-09-12T18:37:25.771Z,16.74
2018-09-12T18:39:56.704Z,16.82
2018-09-12T18:42:27.564Z,16.75
2018-09-12T18:44:58.751Z,17.00
2018-09-12T18:47:29.938Z,16.92
2018-09-12T18:50:01.844Z,16.57
2018-09-12T18:52:33.688Z,16.81
2018-09-12T18:55:05.812Z,16.90
2018-09-12T18:57:37.640Z,16.77
2018-09-12T19:00:09.933Z,16.73
2018-09-12T19:02:42.173Z,16.62
2018-09-12T19:05:14.480Z,16.46
2018-09-12T19:07:46.801Z,16.46
2018-09-12T19:10:18.554Z,16.53
2018-09-12T19:12:50.523Z,16.53
2018-09-12T19:15:22.648Z,16.36
2018-09-12T19:17:54.635Z,16.34
2018-09-12T19:20:26.602Z,16.19
2018-09-12T19:22:59.053Z,16.38
2018-09-12T19:25:30.944Z,16.37
2018-09-12T19:28:02.701Z,16.30
2018-09-12T19:30:34.007Z,16.13
2018-09-12T19:33:05.729Z,16.11
2018-09-12T19:35:38.601Z,16.12
2018-09-12T19:38:10.190Z,16.20
2018-09-12T19:40:41.318Z,16.24
2018-09-12T19:43:12.405Z,16.23
2018-09-12T19:45:43.396Z,16.15
2018-09-12T19:48:13.695Z,16.25
2018-09-12T19:50:44.035Z,16.26
2018-09-12T19:53:14.431Z,16.16
2018-09-12T19:55:44.936Z,16.40
2018-09-12T19:58:15.183Z,16.38
2018-09-12T20:00:45.672Z,16.32
2018-09-12T20:03:16.196Z,16.31
2018-09-12T20:05:46.657Z,16.15
2018-09-12T20:08:17.276Z,16.36
2018-09-12T20:10:47.833Z,16.42
2018-09-12T20:13:18.330Z,16.20
2018-09-12T20:15:48.972Z,16.30
2018-09-12T20:18:19.360Z,16.22
2018-09-12T20:20:50.083Z,16.07
2018-09-12T20:23:20.734Z,16.07
2018-09-12T20:25:51.239Z,16.13
2018-09-12T20:28:21.743Z,16.08
2018-09-12T20:30:52.253Z,16.08
2018-09-12T20:33:22.844Z,16.20
2018-09-12T20:35:53.107Z,16.18
2018-09-12T20:38:23.563Z,16.16
2018-09-12T20:40:53.976Z,16.26
2018-09-12T20:43:24.447Z,16.28
2018-09-12T20:45:55.031Z,16.25
2018-09-12T20:48:25.371Z,16.24
2018-09-12T20:50:55.676Z,16.10
2018-09-12T20:53:26.363Z,16.17
2018-09-12T20:55:56.929Z,16.16
2018-09-12T20:58:27.324Z,16.06
2018-09-12T21:00:57.655Z,15.88
2018-09-12T21:03:27.826Z,16.10
2018-09-12T21:05:58.291Z,15.93
2018-09-12T21:08:28.773Z,15.97
2018-09-12T21:10:59.436Z,16.00
2018-09-12T21:13:29.804Z,16.02
2018-09-12T21:16:00.060Z,16.10
2018-09-12T21:18:30.304Z,16.01
2018-09-12T21:21:00.795Z,16.22
2018-09-12T21:23:31.291Z,16.05
2018-09-12T21:26:01.691Z,15.89
2018-09-12T21:28:32.021Z,15.93
2018-09-12T21:31:02.388Z,15.94
2018-09-12T21:33:32.748Z,16.11
2018-09-12T21:36:03.480Z,15.87
2018-09-12T21:38:33.631Z,15.71
2018-09-12T21:41:04.281Z,15.80
2018-09-12T21:43:35.111Z,15.85
2018-09-12T21:46:05.592Z,15.84
2018-09-12T21:48:36.121Z,16.00
2018-09-12T21:51:06.757Z,16.00
2018-09-12T21:53:37.296Z,15.97
2018-09-12T21:56:08.879Z,15.82
2018-09-12T21:58:39.337Z,15.83
2018-09-12T22:01:09.915Z,15.67
2018-09-12T22:03:40.377Z,15.85
2018-09-12T22:06:10.889Z,15.77
2018-09-12T22:08:41.131Z,15.68
2018-09-12T22:11:11.525Z,15.65
2018-09-12T22:13:42.401Z,15.70
2018-09-12T22:16:12.663Z,15.62
2018-09-12T22:18:43.042Z,15.61
2018-09-12T22:21:13.534Z,15.67
2018-09-12T22:23:43.882Z,15.70
2018-09-12T22:26:14.226Z,15.72
2018-09-12T22:28:44.686Z,15.82
2018-09-12T22:31:15.076Z,15.57
2018-09-12T22:33:45.355Z,15.62
2018-09-12T22:36:15.721Z,15.73
2018-09-12T22:38:46.453Z,15.76
2018-09-12T22:41:16.875Z,15.64
2018-09-12T22:43:47.279Z,15.69
2018-09-12T22:46:17.765Z,15.66
2018-09-12T22:48:48.232Z,15.56
2018-09-12T22:51:18.732Z,15.40
2018-09-12T22:53:48.970Z,15.50
2018-09-12T22:56:19.388Z,15.53
2018-09-12T22:58:49.749Z,15.61
2018-09-12T23:01:20.120Z,15.62
2018-09-12T23:03:50.568Z,15.53
2018-09-12T23:06:21.019Z,15.46
2018-09-12T23:08:51.437Z,15.40
2018-09-12T23:11:21.656Z,15.32
2018-09-12T23:13:52.016Z,15.28
2018-09-12T23:16:22.420Z,15.41
2018-09-12T23:18:52.889Z,15.42
2018-09-12T23:21:23.167Z,15.33
2018-09-12T23:23:53.492Z,15.33
2018-09-12T23:26:24.369Z,15.32
2018-09-12T23:28:54.848Z,15.32
2018-09-12T23:31:25.372Z,15.21
2018-09-12T23:33:55.614Z,15.12
2018-09-12T23:36:25.906Z,15.18
2018-09-12T23:38:56.372Z,15.22
2018-09-12T23:41:26.869Z,15.22
2018-09-12T23:43:57.267Z,15.32
2018-09-12T23:46:27.606Z,15.23
2018-09-12T23:48:58.060Z,15.21
2018-09-12T23:51:28.737Z,15.14
2018-09-12T23:53:59.088Z,15.07
2018-09-12T23:56:29.540Z,15.02
2018-09-12T23:58:59.764Z,15.01
